createdAt,value
2018-01-06T00:00:18.807Z,6.5
2018-01-06T00:00:57.296Z,6.48
2018-01-06T00:01:37.748Z,6.48
2018-01-06T00:02:23.558Z,6.4
2018-01-06T00:03:23.305Z,6.42
2018-01-06T00:04:49.016Z,6.39
2018-01-06T00:05:31.732Z,6.35
2018-01-06T00:07:13.064Z,6.42
2018-01-06T00:08:10.127Z,6.46
2018-01-06T00:09:50.871Z,6.45
2018-01-06T00:11:26.245Z,6.4
2018-01-06T00:12:24.518Z,6.27
2018-01-06T00:16:18.746Z,6.57
2018-01-06T00:19:42.361Z,6.48
2018-01-06T00:20:35.324Z,6.43
2018-01-06T00:21:28.010Z,6.36
2018-01-06T00:22:20.261Z,6.4
2018-01-06T00:23:13.166Z,6.21
2018-01-06T00:24:05.321Z,6.24
2018-01-06T00:24:57.925Z,6.13
2018-01-06T00:25:50.213Z,6.06
2018-01-06T00:26:42.861Z,6.24
2018-01-06T00:27:35.073Z,6.13
2018-01-06T00:28:28.190Z,6.08
2018-01-06T00:29:20.812Z,6.19
2018-01-06T00:30:13.481Z,6.13
2018-01-06T00:31:05.714Z,6.13
2018-01-06T00:31:58.098Z,6.08
2018-01-06T00:32:51.547Z,6.05
2018-01-06T00:33:43.546Z,6.02
2018-01-06T00:34:35.606Z,6.06
2018-01-06T00:35:28.436Z,6.02
2018-01-06T00:36:20.578Z,5.99
2018-01-06T00:37:13.410Z,5.96
2018-01-06T00:38:05.879Z,5.99
2018-01-06T00:38:58.588Z,5.93
2018-01-06T00:39:51.063Z,5.83
2018-01-06T00:40:43.400Z,5.85
2018-01-06T00:41:35.832Z,5.87
2018-01-06T00:42:28.291Z,5.87
2018-01-06T00:43:21.440Z,5.83
2018-01-06T00:44:13.724Z,5.92
2018-01-06T00:45:06.940Z,5.8
2018-01-06T00:45:59.335Z,5.83
2018-01-06T00:46:52.397Z,5.7
2018-01-06T00:47:44.736Z,5.7
2018-01-06T00:48:37.094Z,5.69
2018-01-06T00:49:29.264Z,5.65
2018-01-06T00:50:21.652Z,5.6
2018-01-06T00:51:14.840Z,5.73
2018-01-06T00:52:06.988Z,5.58
2018-01-06T00:52:59.171Z,5.6
2018-01-06T00:53:52.026Z,5.59
2018-01-06T00:54:44.005Z,5.62
2018-01-06T00:55:37.856Z,5.59
2018-01-06T00:56:30.344Z,5.47
2018-01-06T00:57:22.485Z,5.42
2018-01-06T00:58:14.566Z,5.41
2018-01-06T00:59:06.635Z,5.3
2018-01-06T00:59:59.052Z,5.3
2018-01-06T01:00:51.320Z,5.3
2018-01-06T01:01:44.749Z,5.24
2018-01-06T01:02:37.349Z,5.19
2018-01-06T01:03:29.396Z,5.29
2018-01-06T01:04:21.639Z,5.32
2018-01-06T01:05:14.435Z,5.23
2018-01-06T01:06:06.413Z,5.24
2018-01-06T01:06:58.462Z,5.24
2018-01-06T01:07:50.196Z,5.11
2018-01-06T01:08:41.114Z,5.19
2018-01-06T01:09:22.591Z,5.15
2018-01-06T01:10:03.504Z,5.05
2018-01-06T01:10:44.172Z,5.11
2018-01-06T01:11:25.052Z,5.11
2018-01-06T01:12:06.396Z,5.05
2018-01-06T01:12:47.241Z,5.12
2018-01-06T01:13:28.060Z,5.14
2018-01-06T01:14:09.622Z,5.19
2018-01-06T01:14:50.398Z,5.11
2018-01-06T01:15:31.015Z,5.14
2018-01-06T01:16:11.638Z,5.2
2018-01-06T01:16:52.305Z,5.05
2018-01-06T01:17:33.112Z,5.08
2018-01-06T01:18:13.641Z,5.17
2018-01-06T01:18:54.371Z,5.22
2018-01-06T01:19:35.176Z,5.2
2018-01-06T01:20:16.588Z,5.14
2018-01-06T01:20:57.316Z,5.19
2018-01-06T01:21:38.141Z,5.14
2018-01-06T01:22:19.052Z,5.17
2018-01-06T01:22:59.668Z,5.14
2018-01-06T01:23:40.601Z,5.11
2018-01-06T01:24:21.427Z,5.17
2018-01-06T01:25:01.942Z,5.09
2018-01-06T01:25:42.456Z,5.15
2018-01-06T01:26:23.163Z,5.15
2018-01-06T01:27:04.077Z,5.12
2018-01-06T01:27:44.443Z,5.09
2018-01-06T01:28:24.981Z,5.06
2018-01-06T01:29:05.353Z,5.06
2018-01-06T01:29:45.866Z,5.08
2018-01-06T01:30:26.446Z,5.12
2018-01-06T01:31:06.878Z,5.01
2018-01-06T01:31:47.864Z,5.01
2018-01-06T01:32:29.009Z,4.97
2018-01-06T01:33:09.469Z,4.97
2018-01-06T01:33:50.562Z,4.93
2018-01-06T01:34:31.581Z,4.94
2018-01-06T01:35:12.637Z,4.87
2018-01-06T01:35:53.355Z,4.88
2018-01-06T01:36:34.114Z,4.91
2018-01-06T01:37:14.826Z,4.88
2018-01-06T01:37:56.060Z,4.86
2018-01-06T01:38:36.868Z,4.88
2018-01-06T01:39:18.296Z,4.83
2018-01-06T01:39:59.129Z,4.77
2018-01-06T01:40:39.524Z,4.74
2018-01-06T01:41:20.131Z,4.77
2018-01-06T01:42:00.847Z,4.77
2018-01-06T01:42:41.278Z,4.79
2018-01-06T01:43:21.928Z,4.8
2018-01-06T01:44:02.888Z,4.8
2018-01-06T01:44:43.508Z,4.8
2018-01-06T01:45:25.032Z,4.8
2018-01-06T01:46:05.474Z,4.74
2018-01-06T01:46:46.141Z,4.75
2018-01-06T01:47:26.819Z,4.83
2018-01-06T01:48:07.687Z,4.75
2018-01-06T01:48:47.963Z,4.74
2018-01-06T01:49:28.630Z,4.72
2018-01-06T01:50:09.390Z,4.83
2018-01-06T01:50:50.264Z,4.74
2018-01-06T01:51:30.411Z,4.75
2018-01-06T01:52:11.289Z,4.72
2018-01-06T01:52:51.788Z,4.75
2018-01-06T01:53:33.128Z,4.71
2018-01-06T01:54:14.089Z,4.75
2018-01-06T01:54:54.620Z,4.75
2018-01-06T01:55:35.092Z,4.79
2018-01-06T01:56:16.121Z,4.72
2018-01-06T01:56:56.940Z,4.67
2018-01-06T01:57:37.663Z,4.72
2018-01-06T01:58:18.392Z,4.74
2018-01-06T01:58:58.942Z,4.72
2018-01-06T01:59:39.716Z,4.57
2018-01-06T02:00:20.326Z,4.74
2018-01-06T02:01:01.341Z,4.72
2018-01-06T02:01:42.198Z,4.75
2018-01-06T02:02:22.918Z,4.72
2018-01-06T02:03:03.451Z,4.8
2018-01-06T02:03:44.161Z,4.75
2018-01-06T02:04:25.543Z,4.8
2018-01-06T02:05:06.039Z,4.87
2018-01-06T02:05:46.712Z,4.88
2018-01-06T02:06:27.168Z,4.87
2018-01-06T02:07:08.206Z,4.86
2018-01-06T02:07:48.470Z,4.87
2018-01-06T02:08:29.026Z,4.93
2018-01-06T02:09:09.652Z,4.93
2018-01-06T02:09:50.981Z,4.87
2018-01-06T02:10:31.573Z,4.97
2018-01-06T02:11:12.200Z,5.08
2018-01-06T02:11:53.232Z,5.06
2018-01-06T02:12:33.897Z,5.06
2018-01-06T02:13:14.730Z,5.04
2018-01-06T02:13:55.380Z,5.17
2018-01-06T02:14:36.041Z,5.12
2018-01-06T02:15:16.847Z,5.04
2018-01-06T02:15:57.697Z,5.17
2018-01-06T02:16:38.758Z,5.2
2018-01-06T02:17:20.126Z,5.08
2018-01-06T02:18:00.765Z,5.17
2018-01-06T02:18:41.872Z,5.17
2018-01-06T02:19:22.831Z,5.23
2018-01-06T02:20:03.295Z,5.24
2018-01-06T02:20:44.145Z,5.27
2018-01-06T02:21:24.912Z,5.3
2018-01-06T02:22:06.075Z,5.32
2018-01-06T02:22:46.817Z,5.29
2018-01-06T02:23:27.595Z,5.23
2018-01-06T02:24:08.515Z,5.27
2018-01-06T02:24:49.600Z,5.37
2018-01-06T02:25:30.420Z,5.32
2018-01-06T02:26:11.201Z,5.26
2018-01-06T02:26:52.219Z,5.3
2018-01-06T02:27:32.969Z,5.23
2018-01-06T02:28:13.889Z,5.32
2018-01-06T02:28:54.833Z,5.33
2018-01-06T02:29:35.836Z,5.41
2018-01-06T02:30:17.044Z,5.38
2018-01-06T02:30:57.993Z,5.35
2018-01-06T02:31:38.772Z,5.44
2018-01-06T02:32:19.583Z,5.47
2018-01-06T02:33:00.678Z,5.49
2018-01-06T02:33:41.625Z,5.47
2018-01-06T02:34:22.921Z,5.49
2018-01-06T02:35:03.643Z,5.58
2018-01-06T02:35:44.832Z,5.65
2018-01-06T02:36:25.544Z,5.6
2018-01-06T02:37:06.199Z,5.56
2018-01-06T02:37:47.229Z,5.67
2018-01-06T02:38:27.928Z,5.62
2018-01-06T02:39:08.782Z,5.65
2018-01-06T02:39:49.354Z,5.56
2018-01-06T02:40:30.188Z,5.65
2018-01-06T02:41:10.790Z,5.59
2018-01-06T02:41:51.996Z,5.62
2018-01-06T02:42:32.632Z,5.59
2018-01-06T02:43:13.272Z,5.67
2018-01-06T02:43:53.934Z,5.69
2018-01-06T02:44:34.691Z,5.73
2018-01-06T02:45:15.304Z,5.66
2018-01-06T02:45:55.833Z,5.62
2018-01-06T02:46:36.592Z,5.56
2018-01-06T02:47:16.971Z,5.47
2018-01-06T02:47:57.621Z,5.4
2018-01-06T02:48:38.352Z,5.45
2018-01-06T02:49:19.361Z,5.38
2018-01-06T02:49:59.497Z,5.32
2018-01-06T02:50:40.359Z,5.33
2018-01-06T02:51:21.411Z,5.35
2018-01-06T02:52:02.105Z,5.26
2018-01-06T02:52:42.778Z,5.19
2018-01-06T02:53:23.474Z,5.12
2018-01-06T02:54:04.312Z,5.19
2018-01-06T02:54:44.817Z,5.08
2018-01-06T02:55:25.451Z,5.04
2018-01-06T02:56:06.089Z,5.08
2018-01-06T02:56:46.512Z,5.05
2018-01-06T02:57:27.123Z,5.02
2018-01-06T02:58:07.745Z,4.97
2018-01-06T02:58:48.380Z,4.93
2018-01-06T02:59:28.853Z,4.93
2018-01-06T03:00:09.529Z,4.87
2018-01-06T03:00:50.253Z,4.91
2018-01-06T03:01:31.329Z,4.86
2018-01-06T03:02:11.881Z,4.96
2018-01-06T03:02:52.457Z,4.96
2018-01-06T03:03:33.155Z,4.96
2018-01-06T03:04:13.595Z,4.93
2018-01-06T03:04:53.938Z,4.94
2018-01-06T03:05:34.814Z,4.9
2018-01-06T03:06:15.758Z,4.83
2018-01-06T03:06:56.381Z,4.91
2018-01-06T03:07:36.985Z,4.88
2018-01-06T03:08:17.682Z,4.91
2018-01-06T03:08:59.067Z,4.87
2018-01-06T03:09:39.604Z,4.9
2018-01-06T03:10:20.330Z,4.87
2018-01-06T03:11:01.578Z,4.87
2018-01-06T03:11:42.165Z,4.8
2018-01-06T03:12:22.692Z,4.86
2018-01-06T03:13:03.282Z,4.91
2018-01-06T03:13:44.016Z,4.88
2018-01-06T03:14:24.632Z,4.93
2018-01-06T03:15:05.213Z,4.9
2018-01-06T03:15:45.650Z,4.97
2018-01-06T03:16:26.304Z,4.93
2018-01-06T03:17:07.034Z,4.91
2018-01-06T03:17:47.732Z,4.91
2018-01-06T03:18:28.366Z,4.94
2018-01-06T03:19:08.836Z,4.88
2018-01-06T03:19:49.761Z,4.94
2018-01-06T03:20:30.451Z,4.91
2018-01-06T03:21:11.062Z,4.87
2018-01-06T03:21:51.593Z,4.83
2018-01-06T03:22:32.361Z,4.83
2018-01-06T03:23:12.966Z,4.75
2018-01-06T03:23:53.593Z,4.74
2018-01-06T03:24:34.225Z,4.74
2018-01-06T03:25:15.030Z,4.77
2018-01-06T03:25:55.445Z,4.71
2018-01-06T03:26:36.237Z,4.69
2018-01-06T03:27:16.688Z,4.74
2018-01-06T03:27:57.266Z,4.69
2018-01-06T03:28:38.034Z,4.64
2018-01-06T03:29:18.897Z,4.62
2018-01-06T03:29:59.497Z,4.67
2018-01-06T03:30:40.059Z,4.53
2018-01-06T03:31:20.608Z,4.53
2018-01-06T03:32:01.740Z,4.51
2018-01-06T03:32:42.435Z,4.54
2018-01-06T03:33:22.764Z,4.51
2018-01-06T03:34:03.603Z,4.54
2018-01-06T03:34:44.772Z,4.5
2018-01-06T03:35:25.404Z,4.51
2018-01-06T03:36:06.086Z,4.49
2018-01-06T03:36:46.733Z,4.54
2018-01-06T03:37:28.080Z,4.54
2018-01-06T03:38:08.560Z,4.53
2018-01-06T03:38:49.117Z,4.53
2018-01-06T03:39:29.769Z,4.61
2018-01-06T03:40:10.589Z,4.65
2018-01-06T03:40:51.055Z,4.61
2018-01-06T03:41:32.264Z,4.69
2018-01-06T03:42:12.680Z,4.57
2018-01-06T03:42:53.277Z,4.71
2018-01-06T03:43:34.659Z,4.67
2018-01-06T03:44:15.008Z,4.65
2018-01-06T03:44:55.751Z,4.72
2018-01-06T03:45:36.370Z,4.72
2018-01-06T03:46:17.714Z,4.72
2018-01-06T03:46:58.346Z,4.75
2018-01-06T03:47:39.352Z,4.8
2018-01-06T03:48:20.306Z,4.79
2018-01-06T03:49:00.739Z,4.79
2018-01-06T03:49:41.314Z,4.79
2018-01-06T03:50:22.026Z,4.8
2018-01-06T03:51:03.114Z,4.79
2018-01-06T03:51:43.859Z,4.75
2018-01-06T03:52:24.872Z,4.8
2018-01-06T03:53:06.060Z,4.74
2018-01-06T03:53:46.845Z,4.79
2018-01-06T03:54:28.178Z,4.83
2018-01-06T03:55:08.997Z,4.75
2018-01-06T03:55:50.034Z,4.77
2018-01-06T03:56:30.750Z,4.79
2018-01-06T03:57:11.641Z,4.79
2018-01-06T03:57:52.187Z,4.79
2018-01-06T03:58:33.215Z,4.79
2018-01-06T03:59:13.919Z,4.77
2018-01-06T03:59:54.350Z,4.8
2018-01-06T04:00:35.158Z,4.86
2018-01-06T04:01:15.702Z,4.84
2018-01-06T04:01:57.099Z,4.94
2018-01-06T04:41:45.710Z,3.57
2018-01-06T04:42:38.099Z,3.53
2018-01-06T04:43:30.399Z,3.52
2018-01-06T04:44:22.809Z,3.53
2018-01-06T04:45:15.456Z,3.53
2018-01-06T04:46:08.142Z,3.42
2018-01-06T04:47:00.265Z,3.41
2018-01-06T04:47:52.838Z,3.53
2018-01-06T04:48:45.288Z,3.54
2018-01-06T04:49:38.200Z,3.53
2018-01-06T04:50:29.951Z,3.53
2018-01-06T04:51:22.464Z,3.53
2018-01-06T04:52:14.803Z,3.59
2018-01-06T04:53:07.694Z,3.57
2018-01-06T04:53:59.990Z,3.63
2018-01-06T04:54:52.399Z,3.68
2018-01-06T04:55:44.671Z,3.74
2018-01-06T04:56:36.908Z,3.78
2018-01-06T04:57:29.279Z,3.82
2018-01-06T04:58:21.928Z,3.8
2018-01-06T04:59:14.185Z,3.81
2018-01-06T05:00:06.701Z,3.84
2018-01-06T05:00:59.239Z,3.89
2018-01-06T05:01:52.042Z,3.98
2018-01-06T05:02:44.381Z,3.96
2018-01-06T05:03:36.794Z,3.99
2018-01-06T05:04:29.473Z,4.06
2018-01-06T05:05:21.985Z,4.1
2018-01-06T05:06:13.920Z,4.1
2018-01-06T05:08:40.105Z,4.25
2018-01-06T05:09:32.440Z,4.24
2018-01-06T05:10:24.828Z,4.34
2018-01-06T05:11:17.370Z,4.32
2018-01-06T05:12:09.962Z,4.29
2018-01-06T05:13:02.478Z,4.29
2018-01-06T05:13:55.252Z,4.43
2018-01-06T05:14:47.658Z,4.53
2018-01-06T05:15:39.841Z,4.49
2018-01-06T05:16:32.342Z,4.53
2018-01-06T05:17:24.687Z,4.62
2018-01-06T05:18:17.420Z,4.64
2018-01-06T05:19:10.165Z,4.68
2018-01-06T05:20:02.394Z,4.65
2018-01-06T05:20:55.086Z,4.65
2018-01-06T05:21:48.588Z,4.75
2018-01-06T05:22:40.879Z,4.8
2018-01-06T05:23:32.809Z,4.94
2018-01-06T05:24:25.065Z,5.01
2018-01-06T05:25:17.681Z,5.06
2018-01-06T05:26:10.060Z,5.06
2018-01-06T05:27:03.123Z,5.12
2018-01-06T05:27:55.898Z,5.08
2018-01-06T05:28:48.136Z,5.05
2018-01-06T05:29:40.824Z,4.97
2018-01-06T05:30:33.006Z,5.01
2018-01-06T05:31:25.194Z,5.02
2018-01-06T05:32:17.190Z,4.99
2018-01-06T05:33:09.921Z,5.08
2018-01-06T05:34:02.090Z,5.06
2018-01-06T05:34:55.255Z,5.06
2018-01-06T05:35:48.847Z,5.08
2018-01-06T05:36:41.346Z,5.04
2018-01-06T05:37:33.715Z,5.06
2018-01-06T05:38:26.080Z,5.05
2018-01-06T05:39:18.184Z,5.06
2018-01-06T05:40:10.659Z,5.05
2018-01-06T05:41:03.021Z,5.05
2018-01-06T05:41:55.436Z,5.08
2018-01-06T05:42:47.897Z,5.06
2018-01-06T05:43:40.051Z,5.12
2018-01-06T05:44:32.473Z,5.09
2018-01-06T05:45:25.191Z,4.99
2018-01-06T05:46:17.623Z,5.02
2018-01-06T05:47:10.023Z,5.08
2018-01-06T05:48:02.185Z,5.06
2018-01-06T05:48:54.615Z,5.05
2018-01-06T05:49:47.278Z,5.05
2018-01-06T05:50:39.678Z,4.94
2018-01-06T05:51:31.992Z,4.93
2018-01-06T05:52:24.065Z,4.96
2018-01-06T05:53:16.765Z,4.84
2018-01-06T05:54:08.558Z,4.86
2018-01-06T05:55:00.505Z,4.91
2018-01-06T05:55:52.781Z,4.87
2018-01-06T05:56:44.814Z,4.83
2018-01-06T05:57:36.964Z,4.9
2018-01-06T05:58:27.666Z,4.91
2018-01-06T06:00:10.416Z,5.01
2018-01-06T06:01:02.679Z,5.05
2018-01-06T06:01:55.740Z,5.08
2018-01-06T06:02:48.287Z,5.05
2018-01-06T06:03:41.166Z,5.17
2018-01-06T06:04:33.462Z,5.15
2018-01-06T06:05:25.468Z,5.22
2018-01-06T06:06:17.567Z,5.22
2018-01-06T06:07:10.341Z,5.2
2018-01-06T06:08:02.430Z,5.17
2018-01-06T06:08:54.460Z,5.08
2018-01-06T06:09:46.307Z,5.08
2018-01-06T06:10:38.743Z,5.06
2018-01-06T06:11:31.120Z,4.91
2018-01-06T06:12:24.277Z,4.97
2018-01-06T06:13:16.268Z,4.96
2018-01-06T06:14:08.707Z,4.93
2018-01-06T06:15:01.012Z,4.9
2018-01-06T06:15:53.153Z,4.94
2018-01-06T06:16:45.507Z,4.88
2018-01-06T06:17:37.913Z,4.91
2018-01-06T06:18:30.526Z,4.93
2018-01-06T06:19:22.894Z,4.96
2018-01-06T06:20:15.362Z,5.05
2018-01-06T06:21:07.735Z,5.02
2018-01-06T06:22:01.202Z,5.08
2018-01-06T06:22:53.858Z,5.14
2018-01-06T06:23:46.686Z,5.15
2018-01-06T06:24:39.111Z,5.14
2018-01-06T06:25:32.298Z,5.27
2018-01-06T06:26:24.655Z,5.24
2018-01-06T06:27:17.190Z,5.32
2018-01-06T06:28:09.437Z,5.26
2018-01-06T06:29:01.568Z,5.32
2018-01-06T06:29:53.829Z,5.4
2018-01-06T06:30:46.116Z,5.38
2018-01-06T06:31:38.713Z,5.26
2018-01-06T06:32:31.362Z,5.27
2018-01-06T06:33:24.760Z,5.23
2018-01-06T06:34:16.800Z,5.37
2018-01-06T06:35:09.292Z,5.32
2018-01-06T06:36:01.683Z,5.26
2018-01-06T06:36:54.121Z,5.33
2018-01-06T06:37:47.214Z,5.37
2018-01-06T06:38:40.285Z,5.37
2018-01-06T06:39:33.206Z,5.35
2018-01-06T06:40:25.363Z,5.35
2018-01-06T06:41:17.688Z,5.32
2018-01-06T06:42:09.960Z,5.32
2018-01-06T06:43:02.228Z,5.42
2018-01-06T06:43:54.721Z,5.38
2018-01-06T06:44:46.856Z,5.51
2018-01-06T06:45:39.239Z,5.47
2018-01-06T06:46:32.005Z,5.6
2018-01-06T06:47:24.331Z,5.56
2018-01-06T06:48:16.638Z,5.65
2018-01-06T06:49:09.247Z,5.63
2018-01-06T06:50:01.815Z,5.59
2018-01-06T06:50:53.701Z,5.59
2018-01-06T06:51:45.896Z,5.67
2018-01-06T06:52:38.320Z,5.66
2018-01-06T06:53:30.665Z,5.67
2018-01-06T06:54:23.208Z,5.7
2018-01-06T06:55:15.488Z,5.67
2018-01-06T06:56:07.735Z,5.7
2018-01-06T06:57:00.162Z,5.74
2018-01-06T06:57:52.525Z,5.88
2018-01-06T06:58:44.778Z,5.98
2018-01-06T06:59:37.402Z,6.03
2018-01-06T07:00:29.705Z,5.99
2018-01-06T07:01:22.196Z,6.02
2018-01-06T07:02:15.130Z,6.05
2018-01-06T07:03:07.851Z,6.01
2018-01-06T07:04:00.265Z,6.08
2018-01-06T07:04:52.998Z,6.11
2018-01-06T07:05:46.301Z,6.02
2018-01-06T07:06:39.521Z,6.02
2018-01-06T07:07:31.766Z,6.05
2018-01-06T07:08:25.218Z,5.98
2018-01-06T07:09:18.098Z,6.01
2018-01-06T07:10:10.322Z,5.99
2018-01-06T07:11:02.788Z,6.06
2018-01-06T07:11:54.645Z,6.13
2018-01-06T07:12:36.054Z,6.17
2018-01-06T07:13:18.148Z,6.1
2018-01-06T07:13:59.030Z,6.02
2018-01-06T07:14:40.499Z,6.08
2018-01-06T07:15:21.796Z,6.05
2018-01-06T07:16:03.067Z,6.01
2018-01-06T07:16:43.822Z,6.03
2018-01-06T07:17:24.873Z,6.01
2018-01-06T07:18:05.554Z,6.02
2018-01-06T07:18:47.004Z,5.99
2018-01-06T07:19:28.642Z,5.96
2018-01-06T07:20:09.846Z,6.02
2018-01-06T07:20:50.482Z,6.02
2018-01-06T07:21:31.562Z,5.98
2018-01-06T07:22:12.009Z,6.03
2018-01-06T07:22:52.651Z,6.06
2018-01-06T07:23:33.243Z,6.01
2018-01-06T07:24:15.172Z,6.01
2018-01-06T07:24:55.976Z,6.01
2018-01-06T07:25:36.472Z,5.99
2018-01-06T07:26:17.643Z,5.92
2018-01-06T07:26:58.503Z,5.99
2018-01-06T07:27:39.337Z,6.01
2018-01-06T07:28:20.251Z,6.02
2018-01-06T07:29:01.357Z,6.02
2018-01-06T07:29:42.153Z,6.03
2018-01-06T07:30:23.631Z,5.99
2018-01-06T07:31:04.475Z,6.06
2018-01-06T07:31:45.739Z,5.99
2018-01-06T07:32:26.805Z,6.03
2018-01-06T07:33:07.332Z,6.08
2018-01-06T07:33:49.189Z,6.02
2018-01-06T07:34:30.838Z,5.99
2018-01-06T07:35:11.957Z,5.99
2018-01-06T07:35:53.033Z,6.01
2018-01-06T07:36:33.419Z,5.96
2018-01-06T07:37:14.498Z,6.01
2018-01-06T07:37:55.768Z,6.03
2018-01-06T07:38:37.073Z,5.92
2018-01-06T07:39:18.821Z,5.95
2018-01-06T07:40:00.133Z,5.93
2018-01-06T07:40:41.138Z,5.96
2018-01-06T07:41:21.876Z,5.98
2018-01-06T07:42:02.974Z,6.01
2018-01-06T07:42:43.747Z,5.98
2018-01-06T07:43:24.710Z,6.01
2018-01-06T07:44:06.590Z,6.01
2018-01-06T07:44:49.817Z,5.99
2018-01-06T07:45:33.581Z,6.02
2018-01-06T07:46:23.453Z,5.99
2018-01-06T07:47:36.528Z,5.96
2018-01-06T07:48:17.552Z,5.96
2018-01-06T07:48:58.862Z,5.98
2018-01-06T07:49:39.502Z,5.95
2018-01-06T07:50:20.795Z,5.95
2018-01-06T07:51:01.790Z,6.02
2018-01-06T07:51:42.984Z,5.95
2018-01-06T07:52:24.061Z,5.93
2018-01-06T07:53:05.347Z,5.87
2018-01-06T07:53:45.829Z,5.78
2018-01-06T07:54:27.356Z,5.81
2018-01-06T07:55:08.447Z,5.78
2018-01-06T07:55:49.357Z,5.78
2018-01-06T07:56:30.517Z,5.87
2018-01-06T07:57:11.021Z,5.83
2018-01-06T07:57:51.840Z,5.88
2018-01-06T07:58:33.410Z,5.84
2018-01-06T07:59:14.622Z,5.85
2018-01-06T07:59:56.424Z,5.78
2018-01-06T08:00:37.295Z,5.8
2018-01-06T08:01:18.362Z,5.77
2018-01-06T08:01:59.845Z,5.75
2018-01-06T08:02:40.464Z,5.69
2018-01-06T08:03:21.157Z,5.69
2018-01-06T08:04:02.075Z,5.73
2018-01-06T08:04:43.379Z,5.73
2018-01-06T08:05:24.370Z,5.77
2018-01-06T08:06:04.872Z,5.74
2018-01-06T08:06:45.877Z,5.74
2018-01-06T08:07:26.483Z,5.69
2018-01-06T08:08:07.511Z,5.77
2018-01-06T08:08:47.952Z,5.78
2018-01-06T08:09:28.639Z,5.83
2018-01-06T08:10:09.700Z,5.75
2018-01-06T08:10:50.656Z,5.74
2018-01-06T08:11:31.493Z,5.69
2018-01-06T08:12:12.409Z,5.74
2018-01-06T08:12:53.208Z,5.78
2018-01-06T08:13:34.556Z,5.75
2018-01-06T08:14:15.417Z,5.78
2018-01-06T08:14:56.589Z,5.81
2018-01-06T08:15:37.225Z,5.84
2018-01-06T08:16:18.304Z,5.87
2018-01-06T08:16:59.046Z,5.9
2018-01-06T08:17:40.525Z,5.87
2018-01-06T08:18:21.169Z,5.88
2018-01-06T08:19:01.942Z,5.84
2018-01-06T08:19:42.838Z,5.84
2018-01-06T08:20:23.931Z,5.88
2018-01-06T08:21:04.257Z,5.9
2018-01-06T08:21:45.180Z,5.92
2018-01-06T08:22:27.209Z,6.02
2018-01-06T08:23:08.433Z,6.02
2018-01-06T08:23:49.318Z,6.08
2018-01-06T08:24:30.310Z,6.14
2018-01-06T08:25:11.248Z,6.17
2018-01-06T08:25:52.184Z,6.19
2018-01-06T08:26:32.399Z,6.06
2018-01-06T08:27:13.081Z,6.19
2018-01-06T08:27:53.644Z,6.21
2018-01-06T08:28:34.740Z,6.13
2018-01-06T08:29:15.500Z,6.1
2018-01-06T08:29:56.055Z,6.02
2018-01-06T08:30:37.071Z,5.88
2018-01-06T08:31:18.053Z,5.88
2018-01-06T08:31:58.740Z,5.8
2018-01-06T08:32:39.142Z,5.7
2018-01-06T08:33:19.836Z,5.67
2018-01-06T08:34:00.847Z,5.69
2018-01-06T08:34:42.215Z,5.65
2018-01-06T08:35:22.918Z,5.65
2018-01-06T08:36:03.701Z,5.59
2018-01-06T08:36:44.663Z,5.65
2018-01-06T08:37:25.064Z,5.6
2018-01-06T08:38:05.999Z,5.66
2018-01-06T08:38:46.180Z,5.63
2018-01-06T08:39:28.952Z,5.67
2018-01-06T08:40:11.278Z,5.69
2018-01-06T08:40:52.288Z,5.73
2018-01-06T08:41:32.994Z,5.81
2018-01-06T08:42:14.382Z,5.75
2018-01-06T08:42:55.021Z,5.84
2018-01-06T08:43:35.676Z,5.88
2018-01-06T08:44:16.344Z,5.84
2018-01-06T08:44:56.767Z,5.92
2018-01-06T08:45:37.509Z,5.87
2018-01-06T08:46:18.260Z,5.9
2018-01-06T08:46:59.233Z,5.92
2018-01-06T08:47:39.674Z,5.9
2018-01-06T08:48:22.593Z,6.01
2018-01-06T08:49:04.355Z,6.03
2018-01-06T08:49:44.893Z,6.08
2018-01-06T08:50:25.254Z,6.17
2018-01-06T08:51:06.060Z,6.14
2018-01-06T08:51:46.777Z,6.16
2018-01-06T08:52:27.640Z,6.27
2018-01-06T08:53:08.693Z,6.25
2018-01-06T08:53:50.094Z,6.28
2018-01-06T08:54:31.396Z,6.25
2018-01-06T08:55:11.895Z,6.35
2018-01-06T08:55:53.666Z,6.36
2018-01-06T08:56:35.335Z,6.36
2018-01-06T08:57:16.746Z,6.39
2018-01-06T08:57:59.219Z,6.43
2018-01-06T08:58:43.541Z,6.4
2018-01-06T08:59:25.613Z,6.4
2018-01-06T09:00:10.663Z,6.4
2018-01-06T09:00:51.761Z,6.43
2018-01-06T09:01:36.176Z,6.4
2018-01-06T09:02:17.649Z,6.43
2018-01-06T09:02:59.194Z,6.42
2018-01-06T09:03:40.077Z,6.36
2018-01-06T09:04:21.428Z,6.32
2018-01-06T09:05:03.023Z,6.33
2018-01-06T09:05:44.785Z,6.38
2018-01-06T09:06:27.255Z,6.43
2018-01-06T09:07:10.313Z,6.42
2018-01-06T09:10:49.877Z,6.53
2018-01-06T09:11:30.964Z,6.57
2018-01-06T09:12:11.253Z,6.55
2018-01-06T09:12:51.565Z,6.54
2018-01-06T09:13:31.996Z,6.68
2018-01-06T09:15:37.124Z,6.65
2018-01-06T09:16:31.134Z,6.86
2018-01-06T09:17:24.451Z,6.87
2018-01-06T09:18:16.827Z,6.91
2018-01-06T09:19:09.470Z,6.81
2018-01-06T09:20:01.571Z,6.87
2018-01-06T09:20:54.519Z,6.93
2018-01-06T09:21:46.855Z,6.91
2018-01-06T09:22:41.666Z,6.91
2018-01-06T09:23:33.753Z,6.97
2018-01-06T09:24:26.656Z,6.94
2018-01-06T09:25:20.002Z,6.89
2018-01-06T09:27:35.941Z,6.89
2018-01-06T09:28:15.820Z,6.89
2018-01-06T09:28:56.174Z,6.9
2018-01-06T09:29:37.554Z,6.83
2018-01-06T09:30:18.027Z,6.93
2018-01-06T09:30:58.363Z,6.86
2018-01-06T09:31:39.986Z,6.93
2018-01-06T09:32:33.962Z,6.9
2018-01-06T09:33:14.358Z,6.97
2018-01-06T09:33:54.726Z,6.93
2018-01-06T09:34:35.083Z,6.99
2018-01-06T09:35:15.460Z,7.07
2018-01-06T09:35:55.939Z,7.05
2018-01-06T09:36:36.320Z,7.11
2018-01-06T09:37:16.680Z,7.15
2018-01-06T09:37:57.153Z,7.14
2018-01-06T09:38:37.497Z,7.26
2018-01-06T09:39:17.858Z,7.3
2018-01-06T09:39:58.351Z,7.34
2018-01-06T09:40:38.677Z,7.47
2018-01-06T09:41:19.065Z,7.6
2018-01-06T09:41:59.495Z,7.69
2018-01-06T09:42:39.891Z,7.73
2018-01-06T09:43:20.293Z,7.84
2018-01-06T09:44:00.692Z,7.92
2018-01-06T09:44:41.112Z,7.96
2018-01-06T09:45:21.527Z,8.06
2018-01-06T09:46:01.962Z,8.02
2018-01-06T09:46:42.352Z,7.92
2018-01-06T09:47:22.704Z,7.96
2018-01-06T09:48:03.086Z,7.92
2018-01-06T09:48:43.568Z,7.91
2018-01-06T09:49:23.927Z,7.94
2018-01-06T09:50:04.368Z,7.99
2018-01-06T09:50:44.744Z,8
2018-01-06T09:51:25.145Z,8.02
2018-01-06T09:52:05.563Z,8.02
2018-01-06T09:52:46.040Z,8
2018-01-06T09:53:26.440Z,8.02
2018-01-06T09:54:06.791Z,7.99
2018-01-06T09:54:47.195Z,8.03
2018-01-06T09:55:27.585Z,8.02
2018-01-06T09:56:08.022Z,8.04
2018-01-06T09:56:48.392Z,8.06
2018-01-06T09:57:28.748Z,8.07
2018-01-06T09:58:09.181Z,8.18
2018-01-06T09:58:49.541Z,8.14
2018-01-06T09:59:29.933Z,8.21
2018-01-06T10:00:10.493Z,8.28
2018-01-06T10:00:50.879Z,8.31
2018-01-06T10:01:31.302Z,8.37
2018-01-06T10:02:11.683Z,8.47
2018-01-06T10:02:52.073Z,8.55
2018-01-06T10:03:32.472Z,8.78
2018-01-06T10:41:31.917Z,8.49
2018-01-06T10:42:11.702Z,8.46
2018-01-06T10:44:04.542Z,8.4
2018-01-06T10:44:45.204Z,8.28
2018-01-06T10:45:25.580Z,8.32
2018-01-06T10:47:23.094Z,8.29
2018-01-06T10:48:04.261Z,8.27
2018-01-06T10:48:44.824Z,8.24
2018-01-06T10:49:25.133Z,8.18
2018-01-06T10:50:05.542Z,8.27
2018-01-06T10:50:45.940Z,8.18
2018-01-06T10:51:26.414Z,8.21
2018-01-06T10:52:06.784Z,8.22
2018-01-06T10:52:47.241Z,8.27
2018-01-06T10:53:27.677Z,8.34
2018-01-06T10:54:08.049Z,8.32
2018-01-06T10:54:48.447Z,8.49
2018-01-06T10:55:28.837Z,8.6
2018-01-06T10:56:09.247Z,8.71
2018-01-06T10:56:49.674Z,8.76
2018-01-06T10:57:30.122Z,8.94
2018-01-06T10:58:10.514Z,8.91
2018-01-06T10:58:50.875Z,9.06
2018-01-06T10:59:31.237Z,9.12
2018-01-06T11:00:11.656Z,9.16
2018-01-06T11:00:52.054Z,9.2
2018-01-06T11:01:32.470Z,9.26
2018-01-06T11:02:12.885Z,9.24
2018-01-06T11:02:53.266Z,9.3
2018-01-06T11:03:33.653Z,9.31
2018-01-06T11:04:14.169Z,9.32
2018-01-06T11:04:54.560Z,9.22
2018-01-06T11:05:35.001Z,9.3
2018-01-06T11:06:15.369Z,9.17
2018-01-06T11:06:55.789Z,9.24
2018-01-06T11:07:36.207Z,9.2
2018-01-06T11:08:16.747Z,9.19
2018-01-06T11:08:57.803Z,9.16
2018-01-06T11:09:38.291Z,9.17
2018-01-06T11:10:18.638Z,9.2
2018-01-06T11:10:59.065Z,9.26
2018-01-06T11:11:39.428Z,9.32
2018-01-06T11:12:19.800Z,9.35
2018-01-06T11:13:00.197Z,9.32
2018-01-06T11:13:40.699Z,9.3
2018-01-06T11:14:21.154Z,9.27
2018-01-06T11:15:01.485Z,9.3
2018-01-06T11:15:41.959Z,9.34
2018-01-06T11:16:22.409Z,9.23
2018-01-06T11:18:16.878Z,9.24
2018-01-06T11:18:58.356Z,9.19
2018-01-06T11:19:38.732Z,9.2
2018-01-06T11:20:19.119Z,9.22
2018-01-06T11:20:59.512Z,9.31
2018-01-06T11:21:39.910Z,9.2
2018-01-06T11:22:20.356Z,9.26
2018-01-06T11:23:00.714Z,9.31
2018-01-06T11:23:41.171Z,9.34
2018-01-06T11:24:21.540Z,9.3
2018-01-06T11:25:01.944Z,9.27
2018-01-06T11:25:42.341Z,9.34
2018-01-06T11:26:22.705Z,9.35
2018-01-06T11:28:35.246Z,9.44
2018-01-06T11:29:17.431Z,9.42
2018-01-06T11:29:57.754Z,9.44
2018-01-06T11:30:38.113Z,9.58
2018-01-06T11:31:18.492Z,9.63
2018-01-06T11:31:58.946Z,9.59
2018-01-06T11:32:39.359Z,9.6